sensor_id;sensor_type;location;lat;lon;timestamp;pressure;altitude;pressure_sealevel;temperature;humidity
58739;BME280;44512;53.046;18.604;2024-01-15T00:02:23;99218.41;;;2.88;72.47
58739;BME280;44512;53.046;18.604;2024-01-15T00:12:52;99208.74;;;2.87;72.53
58739;BME280;44512;53.046;18.604;2024-01-15T00:23:20;99196.01;;;2.89;72.54
58739;BME280;44512;53.046;18.604;2024-01-15T00:33:48;99168.04;;;2.85;72.57
58739;BME280;44512;53.046;18.604;2024-01-15T00:44:17;99152.10;;;2.77;72.72
58739;BME280;44512;53.046;18.604;2024-01-15T00:54:45;99146.50;;;2.72;72.96
58739;BME280;44512;53.046;18.604;2024-01-15T01:05:14;99129.65;;;2.71;72.99
58739;BME280;44512;53.046;18.604;2024-01-15T01:15:42;99102.10;;;2.71;73.05
58739;BME280;44512;53.046;18.604;2024-01-15T01:26:12;99081.55;;;2.71;73.08
58739;BME280;44512;53.046;18.604;2024-01-15T01:36:39;99074.55;;;2.70;73.00
58739;BME280;44512;53.046;18.604;2024-01-15T01:47:08;99067.37;;;2.71;73.00
58739;BME280;44512;53.046;18.604;2024-01-15T01:57:36;99049.84;;;2.68;73.01
58739;BME280;44512;53.046;18.604;2024-01-15T02:08:05;99031.81;;;2.70;72.99
58739;BME280;44512;53.046;18.604;2024-01-15T02:18:42;99005.52;;;2.74;72.88
58739;BME280;44512;53.046;18.604;2024-01-15T02:29:02;98988.66;;;2.73;72.79
58739;BME280;44512;53.046;18.604;2024-01-15T02:39:30;98981.88;;;2.71;72.84
58739;BME280;44512;53.046;18.604;2024-01-15T02:49:58;98975.88;;;2.69;72.86
58739;BME280;44512;53.046;18.604;2024-01-15T03:00:26;98966.87;;;2.70;72.70
58739;BME280;44512;53.046;18.604;2024-01-15T03:10:55;98942.99;;;2.68;72.54
58739;BME280;44512;53.046;18.604;2024-01-15T03:21:23;98925.13;;;2.69;72.43
58739;BME280;44512;53.046;18.604;2024-01-15T03:31:52;98903.95;;;2.67;72.59
58739;BME280;44512;53.046;18.604;2024-01-15T03:42:20;98897.78;;;2.67;72.54
58739;BME280;44512;53.046;18.604;2024-01-15T03:52:49;98894.49;;;2.65;72.45
58739;BME280;44512;53.046;18.604;2024-01-15T04:03:17;98869.80;;;2.63;72.50
58739;BME280;44512;53.046;18.604;2024-01-15T04:13:45;98842.23;;;2.55;72.75
58739;BME280;44512;53.046;18.604;2024-01-15T04:24:14;98826.20;;;2.55;73.03
58739;BME280;44512;53.046;18.604;2024-01-15T04:34:42;98802.30;;;2.47;73.40
58739;BME280;44512;53.046;18.604;2024-01-15T04:45:11;98789.13;;;2.39;73.72
58739;BME280;44512;53.046;18.604;2024-01-15T04:55:39;98801.41;;;2.33;73.96
58739;BME280;44512;53.046;18.604;2024-01-15T05:06:08;98792.34;;;2.28;74.21
58739;BME280;44512;53.046;18.604;2024-01-15T05:16:44;98793.09;;;2.22;74.43
58739;BME280;44512;53.046;18.604;2024-01-15T05:27:04;98782.82;;;2.19;74.63
58739;BME280;44512;53.046;18.604;2024-01-15T05:37:33;98777.07;;;2.22;74.76
58739;BME280;44512;53.046;18.604;2024-01-15T05:48:01;98781.01;;;2.26;74.55
58739;BME280;44512;53.046;18.604;2024-01-15T05:58:30;98795.00;;;2.28;74.04
58739;BME280;44512;53.046;18.604;2024-01-15T06:08:58;98790.66;;;2.27;73.47
58739;BME280;44512;53.046;18.604;2024-01-15T06:19:26;98786.51;;;2.18;72.89
58739;BME280;44512;53.046;18.604;2024-01-15T06:29:55;98781.54;;;2.15;72.79
58739;BME280;44512;53.046;18.604;2024-01-15T06:40:23;98791.35;;;2.07;72.45
58739;BME280;44512;53.046;18.604;2024-01-15T06:50:52;98793.82;;;2.09;72.24
58739;BME280;44512;53.046;18.604;2024-01-15T07:01:20;98781.91;;;2.12;71.84
58739;BME280;44512;53.046;18.604;2024-01-15T07:11:49;98773.73;;;2.13;71.41
58739;BME280;44512;53.046;18.604;2024-01-15T07:22:17;98786.27;;;2.13;71.11
58739;BME280;44512;53.046;18.604;2024-01-15T07:32:45;98788.94;;;2.13;70.83
58739;BME280;44512;53.046;18.604;2024-01-15T07:43:14;98781.91;;;2.12;70.57
58739;BME280;44512;53.046;18.604;2024-01-15T07:53:43;98768.20;;;2.15;70.41
58739;BME280;44512;53.046;18.604;2024-01-15T08:04:11;98763.88;;;2.14;70.78
58739;BME280;44512;53.046;18.604;2024-01-15T08:14:39;98769.60;;;2.11;71.08
58739;BME280;44512;53.046;18.604;2024-01-15T08:25:08;98778.63;;;2.09;71.29
58739;BME280;44512;53.046;18.604;2024-01-15T08:35:36;98781.09;;;2.11;71.12
58739;BME280;44512;53.046;18.604;2024-01-15T08:46:04;98782.16;;;2.17;70.93
58739;BME280;44512;53.046;18.604;2024-01-15T08:56:33;98792.67;;;2.18;70.98
58739;BME280;44512;53.046;18.604;2024-01-15T09:07:01;98774.40;;;2.22;70.64
58739;BME280;44512;53.046;18.604;2024-01-15T09:17:31;98769.30;;;2.27;70.17
58739;BME280;44512;53.046;18.604;2024-01-15T09:27:58;98754.11;;;2.27;70.01
58739;BME280;44512;53.046;18.604;2024-01-15T09:38:26;98745.10;;;2.28;70.11
58739;BME280;44512;53.046;18.604;2024-01-15T09:48:55;98726.66;;;2.33;70.05
58739;BME280;44512;53.046;18.604;2024-01-15T09:59:24;98724.37;;;2.30;69.79
58739;BME280;44512;53.046;18.604;2024-01-15T10:09:52;98718.82;;;2.32;69.62
58739;BME280;44512;53.046;18.604;2024-01-15T10:20:20;98693.38;;;2.36;69.41
58739;BME280;44512;53.046;18.604;2024-01-15T10:30:55;98708.97;;;2.32;69.16
58739;BME280;44512;53.046;18.604;2024-01-15T10:41:17;98710.43;;;2.35;68.81
58739;BME280;44512;53.046;18.604;2024-01-15T10:51:47;98722.98;;;2.41;68.14
58739;BME280;44512;53.046;18.604;2024-01-15T11:02:15;98723.22;;;2.46;68.49
58739;BME280;44512;53.046;18.604;2024-01-15T11:12:42;98696.52;;;2.46;68.94
58739;BME280;44512;53.046;18.604;2024-01-15T11:23:38;98698.01;;;2.55;67.62
58739;BME280;44512;53.046;18.604;2024-01-15T11:49:41;98650.38;;;2.59;67.15
58739;BME280;44512;53.046;18.604;2024-01-15T11:59:48;98656.76;;;2.65;65.55
58739;BME280;44512;53.046;18.604;2024-01-15T12:10:22;98646.91;;;2.72;64.27
58739;BME280;44512;53.046;18.604;2024-01-15T12:20:45;98664.41;;;2.81;63.40
58739;BME280;44512;53.046;18.604;2024-01-15T12:31:13;98680.84;;;2.78;62.88
58739;BME280;44512;53.046;18.604;2024-01-15T12:41:41;98693.96;;;2.73;66.27
58739;BME280;44512;53.046;18.604;2024-01-15T12:52:10;98687.37;;;2.69;65.65
58739;BME280;44512;53.046;18.604;2024-01-15T13:02:39;98689.86;;;2.70;64.55
58739;BME280;44512;53.046;18.604;2024-01-15T13:13:06;98683.10;;;2.74;63.33
58739;BME280;44512;53.046;18.604;2024-01-15T13:23:35;98683.50;;;2.78;61.82
58739;BME280;44512;53.046;18.604;2024-01-15T13:34:03;98670.79;;;2.80;60.52
58739;BME280;44512;53.046;18.604;2024-01-15T13:44:32;98688.45;;;2.81;59.56
58739;BME280;44512;53.046;18.604;2024-01-15T13:55:00;98692.40;;;2.92;59.45
58739;BME280;44512;53.046;18.604;2024-01-15T14:05:29;98708.88;;;2.95;59.69
58739;BME280;44512;53.046;18.604;2024-01-15T14:15:57;98722.84;;;2.97;60.16
58739;BME280;44512;53.046;18.604;2024-01-15T14:26:25;98749.50;;;2.84;62.44
58739;BME280;44512;53.046;18.604;2024-01-15T14:36:54;98739.97;;;2.68;64.79
58739;BME280;44512;53.046;18.604;2024-01-15T14:47:22;98746.93;;;2.63;65.94
58739;BME280;44512;53.046;18.604;2024-01-15T14:57:52;98759.26;;;2.64;66.57
58739;BME280;44512;53.046;18.604;2024-01-15T15:08:19;98792.31;;;2.56;66.56
58739;BME280;44512;53.046;18.604;2024-01-15T15:18:47;98800.59;;;2.33;63.80
58739;BME280;44512;53.046;18.604;2024-01-15T15:29:16;98799.86;;;2.18;63.39
58739;BME280;44512;53.046;18.604;2024-01-15T15:39:44;98805.70;;;2.06;62.03
58739;BME280;44512;53.046;18.604;2024-01-15T15:50:13;98811.80;;;2.00;60.78
58739;BME280;44512;53.046;18.604;2024-01-15T16:00:41;98844.59;;;1.94;59.33
58739;BME280;44512;53.046;18.604;2024-01-15T16:11:10;98876.09;;;1.84;58.30
58739;BME280;44512;53.046;18.604;2024-01-15T16:21:38;98878.70;;;1.77;58.22
58739;BME280;44512;53.046;18.604;2024-01-15T16:32:06;98897.11;;;1.72;57.98
58739;BME280;44512;53.046;18.604;2024-01-15T16:42:35;98877.91;;;1.62;57.54
58739;BME280;44512;53.046;18.604;2024-01-15T16:53:04;98891.54;;;1.52;56.64
58739;BME280;44512;53.046;18.604;2024-01-15T17:03:32;98922.25;;;1.48;56.17
58739;BME280;44512;53.046;18.604;2024-01-15T17:14:00;98970.80;;;1.44;55.62
58739;BME280;44512;53.046;18.604;2024-01-15T17:24:28;98947.20;;;1.41;55.85
58739;BME280;44512;53.046;18.604;2024-01-15T17:34:57;98956.48;;;1.30;55.51
58739;BME280;44512;53.046;18.604;2024-01-15T17:45:25;98975.02;;;1.23;54.93
58739;BME280;44512;53.046;18.604;2024-01-15T17:55:54;98978.62;;;1.16;54.78
58739;BME280;44512;53.046;18.604;2024-01-15T18:06:22;98991.28;;;1.14;54.64
58739;BME280;44512;53.046;18.604;2024-01-15T18:16:50;99037.15;;;1.09;54.54
58739;BME280;44512;53.046;18.604;2024-01-15T18:27:19;99080.95;;;1.07;54.68
58739;BME280;44512;53.046;18.604;2024-01-15T18:37:47;99068.65;;;1.06;54.82
58739;BME280;44512;53.046;18.604;2024-01-15T18:48:16;99035.56;;;1.00;55.11
58739;BME280;44512;53.046;18.604;2024-01-15T18:58:44;99083.23;;;0.95;55.40
58739;BME280;44512;53.046;18.604;2024-01-15T19:09:13;99114.37;;;0.94;56.18
58739;BME280;44512;53.046;18.604;2024-01-15T19:19:41;99137.52;;;0.94;57.16
58739;BME280;44512;53.046;18.604;2024-01-15T19:30:11;99170.84;;;0.90;58.62
58739;BME280;44512;53.046;18.604;2024-01-15T19:40:38;99187.65;;;0.90;59.40
58739;BME280;44512;53.046;18.604;2024-01-15T19:51:06;99233.47;;;0.86;60.13
58739;BME280;44512;53.046;18.604;2024-01-15T20:01:35;99264.59;;;0.85;60.72
58739;BME280;44512;53.046;18.604;2024-01-15T20:12:04;99285.57;;;0.88;61.71
58739;BME280;44512;53.046;18.604;2024-01-15T20:22:31;99301.89;;;0.85;60.82
58739;BME280;44512;53.046;18.604;2024-01-15T20:33:00;99329.37;;;0.77;60.14
58739;BME280;44512;53.046;18.604;2024-01-15T20:43:28;99351.55;;;0.70;59.72
58739;BME280;44512;53.046;18.604;2024-01-15T20:53:57;99375.34;;;0.71;59.21
58739;BME280;44512;53.046;18.604;2024-01-15T21:04:25;99392.50;;;0.69;58.62
58739;BME280;44512;53.046;18.604;2024-01-15T21:14:54;99411.15;;;0.61;57.73
58739;BME280;44512;53.046;18.604;2024-01-15T21:25:22;99451.44;;;0.58;57.05
58739;BME280;44512;53.046;18.604;2024-01-15T21:35:50;99456.76;;;0.49;57.11
58739;BME280;44512;53.046;18.604;2024-01-15T21:46:19;99483.89;;;0.53;57.39
58739;BME280;44512;53.046;18.604;2024-01-15T21:56:47;99506.02;;;0.54;57.57
58739;BME280;44512;53.046;18.604;2024-01-15T22:07:16;99523.98;;;0.51;57.67
58739;BME280;44512;53.046;18.604;2024-01-15T22:17:44;99551.45;;;0.52;57.51
58739;BME280;44512;53.046;18.604;2024-01-15T22:28:13;99564.91;;;0.50;57.48
58739;BME280;44512;53.046;18.604;2024-01-15T22:38:41;99581.23;;;0.47;57.14
58739;BME280;44512;53.046;18.604;2024-01-15T22:49:10;99608.48;;;0.41;56.68
58739;BME280;44512;53.046;18.604;2024-01-15T22:59:38;99612.98;;;0.41;55.54
58739;BME280;44512;53.046;18.604;2024-01-15T23:10:08;99641.78;;;0.45;54.33
58739;BME280;44512;53.046;18.604;2024-01-15T23:20:35;99671.05;;;0.37;52.57
58739;BME280;44512;53.046;18.604;2024-01-15T23:31:03;99685.03;;;0.39;51.13
58739;BME280;44512;53.046;18.604;2024-01-15T23:41:32;99716.26;;;0.29;49.85
58739;BME280;44512;53.046;18.604;2024-01-15T23:52:00;99770.49;;;0.28;49.11
